Buffalo, WY

8:41 AM MDT on September 17, 2014 (GMT -0600)
Esponda Ranch | Change Station
CLOSE
Current Station
Personal Weather Station
Location: Buffalo, WY
Elevation: 4665 ft
Nearby Weather Stations

Elev 4665 ft 44.32 °N, 106.67 °W | Updated 13 minutes ago

Clear
Clear
63.8 °F
Feels Like 63.8 °F
N
0.0
Wind Variable Wind from SW
Gusts 2.0 mph

Today
High -- | Low -- °F
--% Chance of Precip.
Yesterday
High -- | Low -- °F
Precip. -- in
6:48 AM 7:13 PM
Waning Crescent, 35% visible
Pressure 29.91 in
Visibility 10.0 miles
Clouds Clear
Dew Point 51 °F
Humidity 64%
Rainfall 0.00 in
Snow Depth 0 in , 2 in , 0 in
UV 1 out of 12
Pollen 5.80 out of 12
Air Quality Not available.
Flu Activity Not available.
METAR KBYG 171353Z AUTO 20004KT 10SM CLR 16/07 A3004 RMK AO2 RAE21B38E50 SLP128 P0000 T01610067

More Conditions Fewer Conditions

Pressure 29.91 in
Visibility 10.0 miles
Clouds Clear
Dew Point 51 °F
Humidity 64%
Rainfall 0.00 in
Snow Depth 0 in , 2 in , 0 in
UV 1 out of 12
Pollen 5.80 out of 12
Air Quality Not available.
Flu Activity Not available.
METAR KBYG 171353Z AUTO 20004KT 10SM CLR 16/07 A3004 RMK AO2 RAE21B38E50 SLP128 P0000 T01610067

More Conditions Fewer Conditions

10-Day Weather Forecast

Almanac

Astronomy

Sep. 17, 2014 Rise Set
Actual Time 6:48 AM MDT 7:13 PM MDT
Civil Twilight 6:19 AM MDT 7:42 PM MDT
Nautical Twilight 5:44 AM MDT 8:16 PM MDT
Astronomical Twilight 5:09 AM MDT 8:52 PM MDT
Moon 12:41 AM MDT 3:34 PM MDT
Length of Visible Light 13h 23m
Length of Day
12h 25m
Tomorrow will be 3m 2s shorter.
Waning Crescent, 35% of the Moon is Illuminated
Today
Waning Crescent
Sep 24
New
Oct 1
First Quarter
Oct 8
Full
Oct 15
Last Quarter

Today's Extremes

State Highs State Lows

Community

WunderPhotos

Upload Photos

1,754,060 photos uploaded!

WunderBlogs® & News

By Dr. Jeff Masters
Director of Meteorology, Weather Underground
By Kari Strenfel
Meteorologist, Weather Underground
By Christopher C. Burt
Weather Historian, Weather Underground
September 17, 2014
September 17, 2014
September 17, 2014

Nearby

Snow Depth

Station Depth Elevation
Granite Creek 0 in 6770 ft
New Fork Lake 2 in 8340 ft
Loomis Park 0 in 8240 ft
Salt River Summit 0 in 7600 ft
Townsend Creek 0 in 8700 ft

Earthquake Activity

City Distance Mag. Time & Date
No recent earthquake activity has been reported nearby.
Minimum magnitude displayed is 2.5.

Coastal Water Temperatures

Place Temperature
No Stations Reporting

Nearby Weather Stations